Time;durP1;ratioP1;P1;durP2;ratioP2;P2;SDS_P1;SDS_P2;PMS_P1;PMS_P2;Temp;Humidity;BMP_temperature;BMP_pressure;BME280_temperature;BME280_humidity;BME280_pressure;Samples;Min_cycle;Max_cycle;Signal;HPM_P1;HPM_P2
2021/09/29 00:00:50;;;;;;;15.02;6.40;;;11.40;99.90;;;;;;5083553;28;20477;-73
2021/09/29 00:03:15;;;;;;;11.90;5.72;;;11.40;99.90;;;;;;5084621;28;20058;-72
2021/09/29 00:05:41;;;;;;;17.75;6.35;;;11.40;99.90;;;;;;5084911;28;20043;-73
2021/09/29 00:08:07;;;;;;;16.92;5.40;;;11.40;99.90;;;;;;5085168;28;20419;-74
2021/09/29 00:10:33;;;;;;;25.75;6.85;;;11.40;99.90;;;;;;5084815;28;20033;-73
2021/09/29 00:12:59;;;;;;;12.77;6.03;;;11.40;99.90;;;;;;5085072;28;20028;-72
2021/09/29 00:15:24;;;;;;;17.77;6.45;;;11.40;99.90;;;;;;5084505;28;20036;-73
2021/09/29 00:17:50;;;;;;;12.40;6.50;;;11.30;99.90;;;;;;5084486;28;20047;-73
2021/09/29 00:20:17;;;;;;;10.27;5.43;;;11.30;99.90;;;;;;5083378;28;20024;-73
2021/09/29 00:22:44;;;;;;;13.32;6.07;;;11.30;99.90;;;;;;5084504;28;20025;-73
2021/09/29 00:25:12;;;;;;;10.43;5.72;;;11.30;99.90;;;;;;5084731;28;20029;-73
2021/09/29 00:27:38;;;;;;;15.90;6.63;;;11.30;99.90;;;;;;5084796;28;20025;-73
2021/09/29 00:30:07;;;;;;;15.57;6.68;;;11.30;99.90;;;;;;5084855;28;20483;-74
2021/09/29 00:32:37;;;;;;;12.73;6.07;;;11.30;99.90;;;;;;5083091;28;20119;-74
2021/09/29 00:35:04;;;;;;;9.77;5.57;;;11.20;99.90;;;;;;5083702;28;20443;-74
2021/09/29 00:37:30;;;;;;;10.77;5.47;;;11.20;99.90;;;;;;5084264;28;20052;-72
2021/09/29 00:39:56;;;;;;;18.50;6.97;;;11.20;99.90;;;;;;5084355;28;20115;-72
2021/09/29 00:42:22;;;;;;;17.60;6.65;;;11.20;99.90;;;;;;5084393;28;20029;-73
2021/09/29 00:44:50;;;;;;;17.13;6.53;;;11.20;99.90;;;;;;5084292;28;20039;-73
2021/09/29 00:47:17;;;;;;;16.27;6.30;;;11.20;99.90;;;;;;5083735;28;20020;-72
2021/09/29 00:49:42;;;;;;;16.75;6.90;;;11.20;99.90;;;;;;5084576;28;20028;-73
2021/09/29 00:52:08;;;;;;;15.45;6.10;;;11.10;99.90;;;;;;5084113;28;20021;-72
2021/09/29 00:54:34;;;;;;;16.33;6.18;;;11.10;99.90;;;;;;5084731;28;20031;-73
2021/09/29 00:56:59;;;;;;;17.33;6.78;;;11.10;99.90;;;;;;5084513;28;20037;-72
2021/09/29 00:59:25;;;;;;;11.90;5.30;;;11.10;99.90;;;;;;5083907;28;20028;-72
2021/09/29 01:01:52;;;;;;;21.92;6.07;;;11.10;99.90;;;;;;5084398;28;20040;-72
2021/09/29 01:04:19;;;;;;;17.42;5.75;;;11.10;99.90;;;;;;5084353;28;20091;-72
2021/09/29 01:06:45;;;;;;;17.38;6.10;;;11.00;99.90;;;;;;5083994;28;20025;-71
2021/09/29 01:09:16;;;;;;;13.35;6.32;;;11.00;99.90;;;;;;5084279;28;20040;-71
2021/09/29 01:12:24;;;;;;;13.07;6.20;;;11.00;99.90;;;;;;5084534;28;20028;-71
2021/09/29 01:15:02;;;;;;;10.52;6.22;;;11.00;99.90;;;;;;5062054;28;20092;-73
2021/09/29 01:17:29;;;;;;;14.32;6.57;;;11.00;99.90;;;;;;5082683;28;20140;-73
2021/09/29 01:20:19;;;;;;;11.10;6.25;;;11.00;99.90;;;;;;5083980;28;20113;-73
2021/09/29 01:22:55;;;;;;;14.93;6.10;;;10.90;99.90;;;;;;5084305;28;20052;-73
2021/09/29 01:25:58;;;;;;;12.32;5.97;;;10.90;99.90;;;;;;5084144;28;20040;-72
2021/09/29 01:28:29;;;;;;;17.75;6.57;;;10.90;99.90;;;;;;5083567;28;20035;-73
2021/09/29 01:30:57;;;;;;;13.75;6.68;;;10.90;99.90;;;;;;5084112;28;20021;-72
2021/09/29 01:33:23;;;;;;;12.02;6.10;;;10.90;99.90;;;;;;5083705;28;20052;-72
2021/09/29 01:35:49;;;;;;;13.88;5.55;;;10.90;99.90;;;;;;5083700;28;20033;-72
2021/09/29 01:38:14;;;;;;;13.60;5.80;;;10.90;99.90;;;;;;5083946;28;20047;-73
2021/09/29 01:40:41;;;;;;;14.27;6.90;;;10.90;99.90;;;;;;5083943;28;20182;-72
2021/09/29 01:43:07;;;;;;;13.40;6.53;;;10.80;99.90;;;;;;5083788;28;20088;-73
2021/09/29 01:45:33;;;;;;;13.30;6.15;;;10.80;99.90;;;;;;5087092;28;20028;-72
2021/09/29 01:47:58;;;;;;;11.02;6.03;;;10.80;99.90;;;;;;5087067;28;20032;-71
2021/09/29 01:50:28;;;;;;;18.15;6.38;;;10.80;99.90;;;;;;5087491;28;20028;-71
2021/09/29 01:52:56;;;;;;;14.57;6.15;;;10.80;99.90;;;;;;5087610;28;20045;-71
2021/09/29 01:55:23;;;;;;;13.43;6.00;;;10.80;99.90;;;;;;5085836;28;20035;-72
2021/09/29 01:57:51;;;;;;;14.50;7.22;;;10.70;99.90;;;;;;5085622;28;20131;-71
2021/09/29 02:00:17;;;;;;;18.10;6.63;;;10.70;99.90;;;;;;5087266;28;20062;-71
2021/09/29 02:02:44;;;;;;;18.80;6.53;;;10.70;99.90;;;;;;5086894;28;20039;-72
2021/09/29 02:05:11;;;;;;;10.05;4.97;;;10.80;99.90;;;;;;5087336;28;20071;-72
2021/09/29 02:07:39;;;;;;;16.48;6.45;;;10.70;99.90;;;;;;5085995;28;20054;-72
2021/09/29 02:10:07;;;;;;;13.57;6.60;;;10.70;99.90;;;;;;5086829;28;20025;-72
2021/09/29 02:12:35;;;;;;;17.60;7.25;;;10.70;99.90;;;;;;5087122;28;20024;-72
2021/09/29 02:15:02;;;;;;;11.25;6.18;;;10.70;99.90;;;;;;5087056;28;20033;-71
2021/09/29 02:17:28;;;;;;;12.35;5.50;;;10.70;99.90;;;;;;5086430;28;20131;-72
2021/09/29 02:19:53;;;;;;;13.90;6.47;;;10.70;99.90;;;;;;5086928;28;20025;-72
2021/09/29 02:22:19;;;;;;;11.80;6.55;;;10.60;99.90;;;;;;5086735;28;20031;-73
2021/09/29 02:24:45;;;;;;;12.80;5.35;;;10.70;99.90;;;;;;5086579;28;20024;-71
2021/09/29 02:27:11;;;;;;;12.80;6.15;;;10.70;99.90;;;;;;5085644;28;20533;-72
2021/09/29 02:29:37;;;;;;;12.57;6.25;;;10.70;99.90;;;;;;5086392;28;20024;-72
2021/09/29 02:32:03;;;;;;;12.57;5.45;;;10.70;99.90;;;;;;5086481;28;20465;-72
2021/09/29 02:34:29;;;;;;;15.48;6.80;;;10.70;99.90;;;;;;5085792;28;20033;-71
2021/09/29 02:36:55;;;;;;;11.07;5.43;;;10.70;99.90;;;;;;5085916;28;20067;-71
2021/09/29 02:39:20;;;;;;;21.20;7.03;;;10.70;99.90;;;;;;5086413;28;20037;-72
2021/09/29 02:41:46;;;;;;;10.80;5.90;;;10.70;99.90;;;;;;5086464;28;20028;-72
2021/09/29 02:44:12;;;;;;;14.38;6.43;;;10.70;99.90;;;;;;5086016;28;20084;-73
2021/09/29 02:46:40;;;;;;;14.88;6.57;;;10.60;99.90;;;;;;5086339;28;20079;-73
2021/09/29 02:49:07;;;;;;;14.57;7.18;;;10.70;99.90;;;;;;5086576;28;20078;-73
2021/09/29 02:51:32;;;;;;;13.10;6.20;;;10.70;99.90;;;;;;5086200;28;20036;-72
2021/09/29 02:53:58;;;;;;;13.40;6.43;;;10.70;99.90;;;;;;5086350;28;20039;-72
2021/09/29 02:56:25;;;;;;;11.95;6.28;;;10.70;99.90;;;;;;5086298;28;20031;-71
2021/09/29 02:58:51;;;;;;;15.52;6.95;;;10.70;99.90;;;;;;5085664;28;20028;-72
2021/09/29 03:01:17;;;;;;;16.63;6.80;;;10.70;99.90;;;;;;5086109;28;20050;-72
2021/09/29 03:03:42;;;;;;;11.35;6.25;;;10.70;99.90;;;;;;5086077;28;20124;-72
2021/09/29 03:06:08;;;;;;;14.07;6.65;;;10.70;99.90;;;;;;5085527;28;20103;-72
2021/09/29 03:08:34;;;;;;;10.02;5.63;;;10.70;99.90;;;;;;5086352;28;20048;-72
2021/09/29 03:10:59;;;;;;;10.85;6.32;;;10.80;99.90;;;;;;5086000;28;20048;-71
2021/09/29 03:13:25;;;;;;;15.10;6.55;;;10.80;99.90;;;;;;5084210;28;20059;-71
2021/09/29 03:15:51;;;;;;;13.15;5.82;;;10.80;99.90;;;;;;5085960;28;20029;-72
2021/09/29 03:18:17;;;;;;;10.65;5.65;;;10.80;99.90;;;;;;5084140;28;20036;-72
2021/09/29 03:20:43;;;;;;;17.42;6.78;;;10.80;99.90;;;;;;5085580;28;20029;-72
2021/09/29 03:23:09;;;;;;;15.20;6.85;;;10.80;99.90;;;;;;5085865;28;20052;-72
2021/09/29 03:25:35;;;;;;;12.48;6.53;;;10.80;99.90;;;;;;5085710;28;20062;-72
2021/09/29 03:28:01;;;;;;;11.35;5.93;;;10.80;99.90;;;;;;5085833;28;20036;-71
2021/09/29 03:30:27;;;;;;;12.00;6.00;;;10.90;99.90;;;;;;5085950;28;20032;-71
2021/09/29 03:33:06;;;;;;;15.05;6.10;;;10.90;99.90;;;;;;5083999;28;20033;-72
2021/09/29 03:35:33;;;;;;;13.55;6.40;;;10.90;99.90;;;;;;5084461;28;20037;-72
2021/09/29 03:37:59;;;;;;;16.67;6.47;;;10.90;99.90;;;;;;5085284;28;20057;-71
2021/09/29 03:40:24;;;;;;;12.38;6.47;;;10.90;99.90;;;;;;5085047;28;20609;-71
2021/09/29 03:42:50;;;;;;;12.27;5.75;;;11.00;99.90;;;;;;5085327;28;20031;-71
2021/09/29 03:45:15;;;;;;;12.93;5.97;;;11.00;99.90;;;;;;5085260;28;20024;-73
2021/09/29 03:47:43;;;;;;;14.05;6.40;;;11.00;99.90;;;;;;5084890;28;20087;-72
2021/09/29 03:50:11;;;;;;;13.55;6.72;;;11.00;99.90;;;;;;5085255;28;20028;-72
2021/09/29 03:52:37;;;;;;;18.17;5.95;;;10.90;99.90;;;;;;5084966;28;20027;-72
2021/09/29 03:55:03;;;;;;;11.75;6.03;;;10.90;99.90;;;;;;5085282;28;20093;-73
2021/09/29 03:57:29;;;;;;;14.90;6.50;;;11.00;99.90;;;;;;5085278;28;20063;-72
2021/09/29 03:59:55;;;;;;;12.38;5.72;;;11.00;99.90;;;;;;5084449;28;20037;-72
2021/09/29 04:02:20;;;;;;;17.17;6.75;;;11.00;99.90;;;;;;5084850;28;20038;-72
2021/09/29 04:04:46;;;;;;;11.45;5.28;;;11.00;99.90;;;;;;5084474;28;20092;-72
2021/09/29 04:07:12;;;;;;;17.10;7.32;;;11.00;99.90;;;;;;5084250;28;20109;-73
2021/09/29 04:09:37;;;;;;;14.15;6.43;;;11.00;99.90;;;;;;5085076;28;20028;-73
2021/09/29 04:12:04;;;;;;;14.38;5.50;;;11.00;99.90;;;;;;5084983;28;20126;-72
2021/09/29 04:14:29;;;;;;;13.27;6.80;;;11.10;99.90;;;;;;5083370;28;20031;-72
2021/09/29 04:16:55;;;;;;;11.93;5.10;;;11.10;99.90;;;;;;5084623;28;20040;-72
2021/09/29 04:19:20;;;;;;;15.77;7.05;;;11.10;99.90;;;;;;5084597;28;20024;-72
2021/09/29 04:21:46;;;;;;;17.98;5.50;;;11.10;99.90;;;;;;5084575;28;20024;-72
2021/09/29 04:24:12;;;;;;;12.32;6.03;;;11.10;99.90;;;;;;5084851;28;20082;-73
2021/09/29 04:26:38;;;;;;;12.95;5.47;;;11.20;99.90;;;;;;5084667;28;20080;-72
2021/09/29 04:29:04;;;;;;;15.15;6.60;;;11.20;99.90;;;;;;5084730;28;20032;-73
2021/09/29 04:31:30;;;;;;;13.00;6.35;;;11.20;99.90;;;;;;5084980;28;20029;-72
2021/09/29 04:33:55;;;;;;;21.55;5.63;;;11.20;99.90;;;;;;5084379;28;20056;-72
2021/09/29 04:36:21;;;;;;;10.15;6.03;;;11.30;99.90;;;;;;5084215;28;20049;-72
2021/09/29 04:38:47;;;;;;;10.40;5.07;;;11.30;99.90;;;;;;5084712;28;20082;-72
2021/09/29 04:41:12;;;;;;;12.32;6.38;;;11.20;99.90;;;;;;5084172;28;20039;-72
2021/09/29 04:43:38;;;;;;;15.10;5.88;;;11.30;99.90;;;;;;5084571;28;20111;-72
2021/09/29 04:46:04;;;;;;;15.40;6.18;;;11.30;99.90;;;;;;5084642;28;20043;-73
2021/09/29 04:48:30;;;;;;;11.48;6.05;;;11.30;99.90;;;;;;5084411;28;20365;-72
2021/09/29 04:50:55;;;;;;;11.70;5.43;;;11.30;99.90;;;;;;5084243;28;20032;-73
2021/09/29 04:53:21;;;;;;;13.20;6.55;;;11.30;99.90;;;;;;5084438;28;20025;-72
2021/09/29 04:55:47;;;;;;;12.23;5.65;;;11.30;99.90;;;;;;5084002;28;20060;-72
2021/09/29 04:58:12;;;;;;;10.32;5.00;;;11.30;99.90;;;;;;5082731;28;20056;-72
2021/09/29 05:00:38;;;;;;;12.30;5.65;;;11.30;99.90;;;;;;5084411;28;20074;-72
2021/09/29 05:03:06;;;;;;;12.27;6.38;;;11.40;99.90;;;;;;5083768;28;20028;-73
2021/09/29 05:05:34;;;;;;;12.43;5.72;;;11.40;99.90;;;;;;5084561;28;20033;-72
2021/09/29 05:08:01;;;;;;;11.13;5.63;;;11.40;99.90;;;;;;5083978;28;20495;-72
2021/09/29 05:10:38;;;;;;;18.05;5.50;;;11.40;99.90;;;;;;5084255;28;20029;-72
2021/09/29 05:13:11;;;;;;;12.52;5.68;;;11.40;99.90;;;;;;5084499;28;20056;-72
2021/09/29 05:15:36;;;;;;;12.40;5.15;;;11.40;99.90;;;;;;5083851;28;20028;-73
2021/09/29 05:18:02;;;;;;;10.35;5.10;;;11.40;99.90;;;;;;5084140;28;20040;-73
2021/09/29 05:20:28;;;;;;;11.52;4.85;;;11.40;99.90;;;;;;5096139;28;20169;-71
2021/09/29 05:22:54;;;;;;;10.43;5.63;;;11.40;99.90;;;;;;5088460;28;20032;-72
2021/09/29 05:25:19;;;;;;;9.55;5.40;;;11.40;99.90;;;;;;5088382;28;20469;-71
2021/09/29 05:27:47;;;;;;;14.90;5.30;;;11.40;99.90;;;;;;5087539;28;20094;-72
2021/09/29 05:30:13;;;;;;;8.65;4.93;;;11.40;99.90;;;;;;5087612;28;20040;-73
2021/09/29 05:32:39;;;;;;;13.82;4.95;;;11.40;99.90;;;;;;5087966;28;20029;-72
2021/09/29 05:35:06;;;;;;;7.90;4.82;;;11.40;99.90;;;;;;5087719;28;20082;-71
2021/09/29 05:37:31;;;;;;;13.32;5.25;;;11.40;99.90;;;;;;5087350;28;20067;-71
2021/09/29 05:39:57;;;;;;;8.30;4.75;;;11.40;99.90;;;;;;5099046;28;20032;-71
2021/09/29 05:42:23;;;;;;;14.73;5.55;;;11.40;99.90;;;;;;5095071;28;20032;-71
2021/09/29 05:44:48;;;;;;;10.73;4.90;;;11.40;99.90;;;;;;5106969;28;20377;-71
2021/09/29 05:47:14;;;;;;;8.52;4.75;;;11.40;99.90;;;;;;5106934;28;20028;-71
2021/09/29 05:49:40;;;;;;;9.13;4.82;;;11.40;99.90;;;;;;5100586;28;20050;-71
2021/09/29 05:52:07;;;;;;;10.30;4.50;;;11.40;99.90;;;;;;5107277;28;20028;-72
2021/09/29 05:54:35;;;;;;;17.23;5.30;;;11.40;99.90;;;;;;5098466;28;20046;-72
2021/09/29 05:57:00;;;;;;;13.90;4.95;;;11.40;99.90;;;;;;5095955;28;20043;-71
2021/09/29 05:59:26;;;;;;;9.40;4.60;;;11.40;99.90;;;;;;5091358;28;20092;-71
2021/09/29 06:01:52;;;;;;;14.93;4.75;;;11.40;99.90;;;;;;5098689;28;20085;-71
2021/09/29 06:04:18;;;;;;;9.73;4.78;;;11.40;99.90;;;;;;5106133;28;20032;-72
2021/09/29 06:06:44;;;;;;;11.35;5.15;;;11.50;99.90;;;;;;5096064;28;20070;-72
2021/09/29 06:09:10;;;;;;;11.68;4.50;;;11.50;99.90;;;;;;5091639;28;20040;-73
2021/09/29 06:11:38;;;;;;;9.07;4.85;;;11.50;99.90;;;;;;5093129;28;20127;-73
2021/09/29 06:14:06;;;;;;;15.50;4.50;;;11.50;99.90;;;;;;5092891;28;20062;-73
2021/09/29 06:16:40;;;;;;;8.73;4.10;;;11.50;99.90;;;;;;5098013;28;20055;-71
2021/09/29 06:19:08;;;;;;;14.48;4.90;;;11.50;99.90;;;;;;5094747;28;20029;-71
2021/09/29 06:21:34;;;;;;;11.20;4.38;;;11.50;99.90;;;;;;5095896;28;20043;-72
2021/09/29 06:23:59;;;;;;;12.52;4.60;;;11.50;99.90;;;;;;5093271;28;20052;-72
2021/09/29 06:26:25;;;;;;;11.00;4.57;;;11.50;99.90;;;;;;5093587;28;20715;-72
2021/09/29 06:28:50;;;;;;;9.48;4.47;;;11.60;99.90;;;;;;5092704;28;20031;-72
2021/09/29 06:31:16;;;;;;;8.52;4.40;;;11.50;99.90;;;;;;5089487;28;20036;-72
2021/09/29 06:33:42;;;;;;;8.88;4.47;;;11.60;99.90;;;;;;5106856;28;20043;-72
2021/09/29 06:36:07;;;;;;;7.35;4.03;;;11.60;99.90;;;;;;5092582;28;20074;-72
2021/09/29 06:38:33;;;;;;;11.70;4.82;;;11.60;99.90;;;;;;5086002;28;20041;-72
2021/09/29 06:40:59;;;;;;;11.80;5.32;;;11.60;99.90;;;;;;5086489;28;20499;-73
2021/09/29 06:43:25;;;;;;;9.27;4.25;;;11.60;99.90;;;;;;5086365;28;20025;-72
2021/09/29 06:45:54;;;;;;;9.88;5.43;;;11.60;99.90;;;;;;5096425;28;20028;-71
2021/09/29 06:48:20;;;;;;;8.02;3.92;;;11.70;99.90;;;;;;5086227;28;20029;-71
2021/09/29 06:50:45;;;;;;;6.70;3.75;;;11.70;99.90;;;;;;5086275;28;20051;-72
2021/09/29 06:53:20;;;;;;;8.75;4.60;;;11.70;99.90;;;;;;5084660;28;20302;-72
2021/09/29 06:55:46;;;;;;;9.10;4.28;;;11.70;99.90;;;;;;5086330;28;20027;-71
2021/09/29 06:58:12;;;;;;;8.68;4.60;;;11.70;99.90;;;;;;5086137;28;20037;-71
2021/09/29 07:00:38;;;;;;;16.55;5.60;;;11.70;99.90;;;;;;5085985;28;20029;-72
2021/09/29 07:03:04;;;;;;;8.00;4.50;;;11.70;99.90;;;;;;5098876;28;20039;-72
2021/09/29 07:05:29;;;;;;;10.52;3.83;;;11.80;99.90;;;;;;5086287;28;20048;-70
2021/09/29 07:07:56;;;;;;;11.52;4.60;;;11.80;99.90;;;;;;5086078;28;20037;-71
2021/09/29 07:10:22;;;;;;;8.55;3.97;;;11.80;99.90;;;;;;5086269;28;20028;-71
2021/09/29 07:12:48;;;;;;;7.97;3.97;;;11.80;99.90;;;;;;5085977;28;20452;-71
2021/09/29 07:15:14;;;;;;;8.35;4.32;;;11.80;99.90;;;;;;5089820;28;20028;-71
2021/09/29 07:17:41;;;;;;;10.50;4.28;;;11.90;99.90;;;;;;5091424;28;20044;-71
2021/09/29 07:20:11;;;;;;;13.60;4.97;;;11.90;99.90;;;;;;5090035;28;20047;-72
2021/09/29 07:22:38;;;;;;;13.68;4.60;;;12.00;99.90;;;;;;5096323;28;20031;-73
2021/09/29 07:25:05;;;;;;;6.10;4.22;;;12.00;99.90;;;;;;5096023;28;20017;-72
2021/09/29 07:27:31;;;;;;;8.13;4.35;;;12.00;99.90;;;;;;5092138;28;20028;-71
2021/09/29 07:29:56;;;;;;;8.60;4.22;;;12.10;99.90;;;;;;5087996;28;20062;-72
2021/09/29 07:32:22;;;;;;;6.70;4.07;;;12.10;99.90;;;;;;5085441;28;20025;-73
2021/09/29 07:34:47;;;;;;;7.75;4.13;;;12.20;99.90;;;;;;5088090;28;20047;-72
2021/09/29 07:37:16;;;;;;;7.97;4.03;;;12.20;99.90;;;;;;5094507;28;20056;-72
2021/09/29 07:39:42;;;;;;;8.88;4.70;;;12.20;99.90;;;;;;5086868;28;20029;-72
2021/09/29 07:42:11;;;;;;;16.10;4.97;;;12.20;99.90;;;;;;5084668;28;20025;-72
2021/09/29 07:44:38;;;;;;;8.68;4.20;;;12.20;99.90;;;;;;5089957;28;20067;-73
2021/09/29 07:47:04;;;;;;;7.93;4.47;;;12.30;99.90;;;;;;5099228;28;20107;-73
2021/09/29 07:49:30;;;;;;;6.47;3.65;;;12.20;99.90;;;;;;5101899;28;20071;-73
2021/09/29 07:51:57;;;;;;;6.75;3.80;;;12.30;99.90;;;;;;5090734;28;20060;-71
2021/09/29 07:54:25;;;;;;;9.48;5.20;;;12.30;99.90;;;;;;5089035;28;20028;-72
2021/09/29 07:56:52;;;;;;;9.25;4.18;;;12.30;99.90;;;;;;5089509;28;20067;-74
2021/09/29 07:59:18;;;;;;;15.98;4.75;;;12.40;99.90;;;;;;5085013;28;20054;-73
2021/09/29 08:01:43;;;;;;;10.52;4.80;;;12.40;99.90;;;;;;5084816;28;20025;-73
2021/09/29 08:04:10;;;;;;;14.40;4.13;;;12.40;99.90;;;;;;5084657;28;20067;-74
2021/09/29 08:06:36;;;;;;;7.95;4.57;;;12.40;99.90;;;;;;5091325;28;20028;-73
2021/09/29 08:09:03;;;;;;;8.65;4.68;;;12.50;99.90;;;;;;5096053;28;20546;-72
2021/09/29 08:11:29;;;;;;;7.90;4.55;;;12.60;99.90;;;;;;5099583;28;20028;-73
2021/09/29 08:13:55;;;;;;;9.93;4.75;;;12.70;99.90;;;;;;5105206;28;20085;-73
2021/09/29 08:16:20;;;;;;;5.40;3.50;;;12.80;99.90;;;;;;5104853;28;20055;-73
2021/09/29 08:18:46;;;;;;;6.00;3.85;;;13.00;99.90;;;;;;5102291;28;20483;-73
2021/09/29 08:21:17;;;;;;;6.50;3.38;;;13.00;99.90;;;;;;5093480;28;20396;-72
2021/09/29 08:23:48;;;;;;;7.85;4.18;;;13.00;99.90;;;;;;5093410;28;20027;-71
2021/09/29 08:29:04;;;;;;;7.07;3.58;;;13.30;99.90;;;;;;5095261;28;20044;-71
2021/09/29 08:31:45;;;;;;;5.80;3.78;;;13.50;99.90;;;;;;5091523;28;20024;-70
2021/09/29 08:37:03;;;;;;;5.30;3.03;;;13.80;99.90;;;;;;5084397;28;20098;-70
2021/09/29 08:39:37;;;;;;;15.48;4.60;;;13.70;99.90;;;;;;5084214;28;20020;-73
2021/09/29 08:44:57;;;;;;;8.20;4.32;;;13.60;99.90;;;;;;5084603;28;20044;-72
2021/09/29 08:52:40;;;;;;;8.85;3.70;;;13.80;99.90;;;;;;5096592;28;20404;-74
2021/09/29 09:15:08;;;;;;;8.50;4.18;;;14.20;99.90;;;;;;5096411;28;20081;-74
2021/09/29 09:17:36;;;;;;;10.95;3.83;;;14.40;99.90;;;;;;5095323;28;20035;-75
2021/09/29 09:20:25;;;;;;;13.00;4.28;;;14.50;99.90;;;;;;5101227;28;20112;-73
2021/09/29 09:22:53;;;;;;;7.70;4.00;;;14.50;99.90;;;;;;5089323;28;20032;-69
2021/09/29 09:25:50;;;;;;;5.80;3.13;;;14.60;99.90;;;;;;5088247;28;20029;-72
2021/09/29 09:28:27;;;;;;;7.38;3.70;;;14.60;99.90;;;;;;5085871;28;20033;-73
2021/09/29 09:30:56;;;;;;;8.00;3.80;;;14.70;99.90;;;;;;5099993;28;20091;-74
2021/09/29 09:33:24;;;;;;;9.32;4.18;;;14.80;99.90;;;;;;5105121;28;20028;-72
2021/09/29 09:35:52;;;;;;;4.82;3.22;;;15.00;99.90;;;;;;5099518;28;20020;-71
2021/09/29 09:38:24;;;;;;;13.65;4.00;;;15.20;99.90;;;;;;5090695;28;20055;-72
2021/09/29 09:40:56;;;;;;;6.13;3.45;;;15.40;99.90;;;;;;5098291;28;20024;-73
2021/09/29 09:43:24;;;;;;;7.13;3.65;;;15.50;99.90;;;;;;5085586;28;20029;-74
2021/09/29 09:45:50;;;;;;;4.35;2.55;;;15.60;99.90;;;;;;5092411;28;20054;-71
2021/09/29 09:48:29;;;;;;;7.30;3.58;;;15.60;99.90;;;;;;5097393;28;20025;-73
2021/09/29 09:51:04;;;;;;;10.20;4.00;;;15.60;99.90;;;;;;5094076;28;20047;-72
2021/09/29 09:53:32;;;;;;;7.00;3.42;;;15.60;99.90;;;;;;5094807;28;20032;-73
2021/09/29 09:55:57;;;;;;;9.52;3.42;;;15.70;99.90;;;;;;5095744;28;20108;-72
2021/09/29 09:58:23;;;;;;;7.57;3.50;;;15.70;99.90;;;;;;5096718;28;21001;-72
2021/09/29 10:00:58;;;;;;;20.30;2.88;;;15.70;99.90;;;;;;5091370;28;20092;-70
2021/09/29 10:03:28;;;;;;;6.22;3.60;;;15.70;99.90;;;;;;5099267;28;20032;-70
2021/09/29 10:05:54;;;;;;;8.20;3.55;;;15.80;99.90;;;;;;5105548;28;20047;-68
2021/09/29 10:08:26;;;;;;;14.52;3.70;;;15.90;99.90;;;;;;5107378;28;20024;-73
2021/09/29 10:11:04;;;;;;;6.40;3.30;;;15.90;99.90;;;;;;5107594;28;20024;-69
2021/09/29 10:27:52;;;;;;;;;;;16.60;99.90;;;;;;5107704;28;20039;-73
2021/09/29 10:30:36;;;;;;;6.57;2.83;;;16.90;99.90;;;;;;5106465;28;19911;-70
2021/09/29 10:33:04;;;;;;;6.60;3.28;;;17.20;99.90;;;;;;5100200;28;20047;-70
2021/09/29 10:36:02;;;;;;;6.78;3.15;;;17.20;99.90;;;;;;5085978;28;20100;-72
2021/09/29 10:41:23;;;;;;;5.68;2.25;;;17.10;99.90;;;;;;5094689;28;20061;-72
2021/09/29 10:44:01;;;;;;;4.18;2.13;;;17.00;99.90;;;;;;5090153;28;20067;-72
2021/09/29 11:11:57;;;;;;;8.70;2.85;;;16.30;99.90;;;;;;5093211;28;20044;-71
2021/09/29 11:33:48;;;;;;;8.85;2.33;;;16.10;99.90;;;;;;5063303;28;20094;-73
2021/09/29 12:08:50;;;;;;;3.28;2.13;;;15.10;99.90;;;;;;5085085;28;20056;-73
2021/09/29 12:11:26;;;;;;;8.27;2.42;;;15.10;99.90;;;;;;5084601;28;20076;-72
2021/09/29 12:14:00;;;;;;;6.70;1.75;;;15.10;99.90;;;;;;5084933;28;20021;-73
2021/09/29 12:16:26;;;;;;;;;;;15.00;99.90;;;;;;5085428;28;20021;-71
2021/09/29 12:19:11;;;;;;;7.32;2.17;;;15.00;99.90;;;;;;5084627;28;19942;-70
2021/09/29 12:21:49;;;;;;;5.32;2.22;;;15.00;99.90;;;;;;5094850;28;20032;-72
2021/09/29 12:24:29;;;;;;;4.13;1.90;;;15.00;99.90;;;;;;5084747;28;20034;-72
2021/09/29 12:26:57;;;;;;;8.27;2.53;;;14.90;99.90;;;;;;5084521;28;20036;-72
2021/09/29 12:29:36;;;;;;;5.18;2.22;;;15.00;99.90;;;;;;5084176;28;20028;-69
2021/09/29 12:34:48;;;;;;;3.95;1.42;;;14.90;99.90;;;;;;5084070;28;20093;-70
2021/09/29 12:37:14;;;;;;;3.35;1.42;;;15.00;99.90;;;;;;5084490;28;20052;-71
2021/09/29 12:39:43;;;;;;;2.00;1.00;;;15.00;99.90;;;;;;5084639;28;20065;-73
2021/09/29 12:42:09;;;;;;;3.38;1.67;;;14.90;99.90;;;;;;5083390;28;20038;-72
2021/09/29 12:44:48;;;;;;;3.00;1.38;;;14.80;99.90;;;;;;5084733;28;20032;-73
2021/09/29 12:47:23;;;;;;;2.95;1.40;;;14.70;99.90;;;;;;5084436;28;20021;-70
2021/09/29 12:49:49;;;;;;;5.90;1.63;;;14.70;99.90;;;;;;5084467;28;20032;-73
2021/09/29 12:52:32;;;;;;;6.72;1.70;;;14.50;99.90;;;;;;5084501;28;20025;-70
2021/09/29 12:54:59;;;;;;;5.38;2.08;;;14.30;99.90;;;;;;5084060;28;20035;-69
2021/09/29 12:57:27;;;;;;;6.80;2.10;;;14.10;99.90;;;;;;5084275;28;20068;-71
2021/09/29 12:59:54;;;;;;;6.65;2.25;;;14.10;99.90;;;;;;5083170;28;20434;-73
2021/09/29 13:02:20;;;;;;;5.60;1.92;;;13.90;99.90;;;;;;5083854;28;20021;-71
2021/09/29 13:04:45;;;;;;;2.80;1.50;;;13.90;99.90;;;;;;5084408;28;20043;-72
2021/09/29 13:07:11;;;;;;;3.22;1.63;;;13.90;99.90;;;;;;5082871;28;20038;-71
2021/09/29 13:09:36;;;;;;;6.05;1.92;;;13.80;99.90;;;;;;5084281;28;20072;-72
2021/09/29 13:12:03;;;;;;;3.97;1.90;;;13.80;99.90;;;;;;5084624;28;20043;-69
2021/09/29 13:14:31;;;;;;;6.82;2.25;;;13.80;99.90;;;;;;5084410;28;20021;-71
2021/09/29 13:16:57;;;;;;;3.22;2.10;;;13.80;99.90;;;;;;5083560;28;20043;-71
2021/09/29 13:19:33;;;;;;;3.15;1.58;;;13.80;99.90;;;;;;5084305;28;20028;-70
2021/09/29 13:22:05;;;;;;;12.07;2.55;;;13.80;99.90;;;;;;5084730;28;20031;-71
2021/09/29 13:38:00;;;;;;;4.78;2.30;;;13.60;99.90;;;;;;5086422;28;19942;-69
2021/09/29 13:40:25;;;;;;;5.75;2.80;;;13.50;99.90;;;;;;5091506;28;20024;-69
2021/09/29 13:42:51;;;;;;;6.28;3.13;;;13.40;99.90;;;;;;5095422;28;20035;-71
2021/09/29 13:45:16;;;;;;;10.30;2.90;;;13.30;99.90;;;;;;5088856;28;20072;-69
2021/09/29 13:47:42;;;;;;;3.95;2.33;;;13.20;99.90;;;;;;5096797;28;20028;-71
2021/09/29 13:50:10;;;;;;;9.88;2.63;;;13.10;99.90;;;;;;5097437;28;20032;-70
2021/09/29 13:52:37;;;;;;;3.15;1.70;;;13.00;99.90;;;;;;5095109;28;20047;-72
2021/09/29 13:55:11;;;;;;;4.38;1.92;;;13.00;99.90;;;;;;5093465;28;20123;-68
2021/09/29 13:58:04;;;;;;;3.55;1.27;;;13.00;99.90;;;;;;5090055;28;20045;-70
2021/09/29 14:03:40;;;;;;;4.22;1.95;;;13.00;99.90;;;;;;5093472;28;20059;-72
2021/09/29 14:14:24;;;;;;;6.30;1.90;;;12.80;99.90;;;;;;5085140;28;20059;-72
2021/09/29 14:14:51;;;;;;;2.72;1.92;;;12.80;99.90;;;;;;5089179;28;20039;-71
2021/09/29 14:28:38;;;;;;;2.80;1.83;;;12.70;99.90;;;;;;5107142;28;20050;-71
2021/09/29 14:31:10;;;;;;;3.75;1.75;;;12.70;99.90;;;;;;5106105;28;20506;-71
2021/09/29 14:33:44;;;;;;;4.40;1.80;;;12.70;99.90;;;;;;5104309;28;20438;-72
2021/09/29 14:36:10;;;;;;;4.47;2.42;;;12.70;99.90;;;;;;5105693;28;20044;-73
2021/09/29 14:38:36;;;;;;;4.13;2.15;;;12.70;99.90;;;;;;5105842;28;20028;-72
2021/09/29 14:41:01;;;;;;;3.90;2.40;;;12.70;99.90;;;;;;5105705;28;20028;-73
2021/09/29 14:43:27;;;;;;;4.25;2.55;;;12.60;99.90;;;;;;5105484;28;20057;-71
2021/09/29 14:45:52;;;;;;;5.18;3.00;;;12.60;99.90;;;;;;5105241;28;20020;-72
2021/09/29 14:48:18;;;;;;;4.78;2.50;;;12.60;99.90;;;;;;5105508;28;20059;-70
2021/09/29 14:50:49;;;;;;;3.85;2.25;;;12.60;99.90;;;;;;5103567;28;20484;-73
2021/09/29 14:53:15;;;;;;;4.57;2.42;;;12.60;99.90;;;;;;5104778;28;20016;-72
2021/09/29 14:55:40;;;;;;;4.57;1.80;;;12.50;99.90;;;;;;5105064;28;20023;-71
2021/09/29 14:58:08;;;;;;;3.65;1.73;;;12.50;99.90;;;;;;5101086;28;20037;-73
2021/09/29 15:00:34;;;;;;;2.28;1.33;;;12.40;99.90;;;;;;5094661;28;20024;-72
2021/09/29 15:03:00;;;;;;;2.65;1.67;;;12.40;99.90;;;;;;5095722;28;20051;-71
2021/09/29 15:05:28;;;;;;;7.43;1.58;;;12.30;99.90;;;;;;5104721;28;20024;-72
2021/09/29 15:07:54;;;;;;;1.77;1.10;;;12.30;99.90;;;;;;5105902;28;20035;-71
2021/09/29 15:10:19;;;;;;;1.30;0.77;;;12.20;99.90;;;;;;5096758;28;20028;-71
2021/09/29 15:12:45;;;;;;;1.45;1.00;;;12.20;99.90;;;;;;5095221;28;20032;-70
2021/09/29 15:15:26;;;;;;;3.25;0.73;;;12.10;99.90;;;;;;5088934;28;20043;-72
2021/09/29 15:17:58;;;;;;;2.00;0.75;;;12.10;99.90;;;;;;5102412;28;20086;-73
2021/09/29 15:23:13;;;;;;;0.88;0.63;;;11.90;99.90;;;;;;5105892;28;20020;-72
2021/09/29 15:47:24;;;;;;;;;;;11.80;99.90;;;;;;5088974;28;20034;-69
2021/09/29 15:50:01;;;;;;;0.20;0.20;;;11.70;99.90;;;;;;5105304;28;19904;-70
2021/09/29 15:55:21;;;;;;;0.30;0.30;;;11.60;99.90;;;;;;5085102;28;20035;-75
2021/09/29 16:03:22;;;;;;;1.85;0.40;;;11.50;99.90;;;;;;5084560;28;20070;-74
2021/09/29 16:08:26;;;;;;;2.60;0.60;;;11.40;99.90;;;;;;5095045;28;20058;-74